sensor_id;sensor_type;location;lat;lon;timestamp;P1;durP1;ratioP1;P2;durP2;ratioP2
70908;SDS011;58554;52.006;5.926;2023-03-01T00:00:09;12.23;;;5.73;;
70908;SDS011;58554;52.006;5.926;2023-03-01T00:02:38;9.52;;;5.50;;
70908;SDS011;58554;52.006;5.926;2023-03-01T00:05:05;11.37;;;6.20;;
70908;SDS011;58554;52.006;5.926;2023-03-01T00:07:35;12.32;;;5.85;;
70908;SDS011;58554;52.006;5.926;2023-03-01T00:10:02;11.60;;;5.73;;
70908;SDS011;58554;52.006;5.926;2023-03-01T00:12:29;12.00;;;6.23;;
70908;SDS011;58554;52.006;5.926;2023-03-01T00:14:57;12.43;;;6.47;;
70908;SDS011;58554;52.006;5.926;2023-03-01T00:17:24;11.47;;;5.97;;
70908;SDS011;58554;52.006;5.926;2023-03-01T00:19:50;12.15;;;6.45;;
70908;SDS011;58554;52.006;5.926;2023-03-01T00:22:17;10.93;;;6.70;;
70908;SDS011;58554;52.006;5.926;2023-03-01T00:24:46;10.23;;;5.60;;
70908;SDS011;58554;52.006;5.926;2023-03-01T00:27:13;11.07;;;6.20;;
70908;SDS011;58554;52.006;5.926;2023-03-01T00:29:39;13.60;;;5.93;;
70908;SDS011;58554;52.006;5.926;2023-03-01T00:32:06;13.83;;;6.97;;
70908;SDS011;58554;52.006;5.926;2023-03-01T00:34:32;12.13;;;6.03;;
70908;SDS011;58554;52.006;5.926;2023-03-01T00:36:59;13.10;;;6.80;;
70908;SDS011;58554;52.006;5.926;2023-03-01T00:39:25;12.75;;;6.30;;
70908;SDS011;58554;52.006;5.926;2023-03-01T00:41:55;13.47;;;6.83;;
70908;SDS011;58554;52.006;5.926;2023-03-01T00:44:21;12.90;;;6.83;;
70908;SDS011;58554;52.006;5.926;2023-03-01T00:46:48;12.73;;;7.53;;
70908;SDS011;58554;52.006;5.926;2023-03-01T00:49:14;15.83;;;7.67;;
70908;SDS011;58554;52.006;5.926;2023-03-01T00:51:41;13.87;;;7.33;;
70908;SDS011;58554;52.006;5.926;2023-03-01T00:54:08;14.75;;;7.65;;
70908;SDS011;58554;52.006;5.926;2023-03-01T00:56:35;14.73;;;7.10;;
70908;SDS011;58554;52.006;5.926;2023-03-01T00:59:04;13.82;;;7.35;;
70908;SDS011;58554;52.006;5.926;2023-03-01T01:01:31;14.57;;;7.80;;
70908;SDS011;58554;52.006;5.926;2023-03-01T01:03:58;15.18;;;7.97;;
70908;SDS011;58554;52.006;5.926;2023-03-01T01:06:28;18.23;;;7.87;;
70908;SDS011;58554;52.006;5.926;2023-03-01T01:08:58;13.88;;;7.32;;
70908;SDS011;58554;52.006;5.926;2023-03-01T01:11:26;13.63;;;7.43;;
70908;SDS011;58554;52.006;5.926;2023-03-01T01:13:55;13.93;;;7.05;;
70908;SDS011;58554;52.006;5.926;2023-03-01T01:16:26;15.50;;;8.17;;
70908;SDS011;58554;52.006;5.926;2023-03-01T01:18:55;14.48;;;8.30;;
70908;SDS011;58554;52.006;5.926;2023-03-01T01:21:23;16.10;;;8.37;;
70908;SDS011;58554;52.006;5.926;2023-03-01T01:23:51;17.05;;;8.65;;
70908;SDS011;58554;52.006;5.926;2023-03-01T01:26:19;15.40;;;8.27;;
70908;SDS011;58554;52.006;5.926;2023-03-01T01:28:49;14.98;;;8.52;;
70908;SDS011;58554;52.006;5.926;2023-03-01T01:31:18;16.87;;;8.93;;
70908;SDS011;58554;52.006;5.926;2023-03-01T01:33:49;18.88;;;8.85;;
70908;SDS011;58554;52.006;5.926;2023-03-01T01:36:16;17.37;;;8.80;;
70908;SDS011;58554;52.006;5.926;2023-03-01T01:38:43;14.90;;;8.50;;
70908;SDS011;58554;52.006;5.926;2023-03-01T01:41:11;14.80;;;7.83;;
70908;SDS011;58554;52.006;5.926;2023-03-01T01:43:40;15.95;;;8.63;;
70908;SDS011;58554;52.006;5.926;2023-03-01T01:46:14;15.90;;;7.93;;
70908;SDS011;58554;52.006;5.926;2023-03-01T01:48:59;16.25;;;8.38;;
70908;SDS011;58554;52.006;5.926;2023-03-01T01:51:31;14.13;;;8.20;;
70908;SDS011;58554;52.006;5.926;2023-03-01T01:54:06;15.57;;;8.02;;
70908;SDS011;58554;52.006;5.926;2023-03-01T01:56:42;14.07;;;7.70;;
70908;SDS011;58554;52.006;5.926;2023-03-01T01:59:16;18.17;;;8.50;;
70908;SDS011;58554;52.006;5.926;2023-03-01T02:01:42;14.40;;;8.30;;
70908;SDS011;58554;52.006;5.926;2023-03-01T02:04:12;12.82;;;7.53;;
70908;SDS011;58554;52.006;5.926;2023-03-01T02:06:39;16.13;;;8.00;;
70908;SDS011;58554;52.006;5.926;2023-03-01T02:09:16;14.95;;;8.25;;
70908;SDS011;58554;52.006;5.926;2023-03-01T02:11:48;14.83;;;8.07;;
70908;SDS011;58554;52.006;5.926;2023-03-01T02:14:17;16.17;;;8.93;;
70908;SDS011;58554;52.006;5.926;2023-03-01T02:16:46;15.63;;;8.00;;
70908;SDS011;58554;52.006;5.926;2023-03-01T02:19:20;13.52;;;7.93;;
70908;SDS011;58554;52.006;5.926;2023-03-01T02:22:05;15.33;;;7.37;;
70908;SDS011;58554;52.006;5.926;2023-03-01T02:24:45;15.23;;;7.75;;
70908;SDS011;58554;52.006;5.926;2023-03-01T02:27:29;18.10;;;8.73;;
70908;SDS011;58554;52.006;5.926;2023-03-01T02:30:09;13.95;;;7.95;;
70908;SDS011;58554;52.006;5.926;2023-03-01T02:32:37;18.77;;;8.63;;
70908;SDS011;58554;52.006;5.926;2023-03-01T02:35:06;17.43;;;8.50;;
70908;SDS011;58554;52.006;5.926;2023-03-01T02:37:37;14.77;;;7.97;;
70908;SDS011;58554;52.006;5.926;2023-03-01T02:40:07;15.60;;;8.40;;
70908;SDS011;58554;52.006;5.926;2023-03-01T02:42:40;16.93;;;8.20;;
70908;SDS011;58554;52.006;5.926;2023-03-01T02:45:18;14.27;;;7.73;;
70908;SDS011;58554;52.006;5.926;2023-03-01T02:47:47;14.13;;;7.40;;
70908;SDS011;58554;52.006;5.926;2023-03-01T02:50:17;14.30;;;8.10;;
70908;SDS011;58554;52.006;5.926;2023-03-01T02:53:06;13.17;;;7.17;;
70908;SDS011;58554;52.006;5.926;2023-03-01T02:55:42;15.65;;;8.25;;
70908;SDS011;58554;52.006;5.926;2023-03-01T02:58:09;14.40;;;7.03;;
70908;SDS011;58554;52.006;5.926;2023-03-01T03:00:39;15.03;;;7.60;;
70908;SDS011;58554;52.006;5.926;2023-03-01T03:03:08;15.00;;;7.40;;
70908;SDS011;58554;52.006;5.926;2023-03-01T03:05:38;14.83;;;7.17;;
70908;SDS011;58554;52.006;5.926;2023-03-01T03:08:05;13.88;;;7.47;;
70908;SDS011;58554;52.006;5.926;2023-03-01T03:10:33;13.10;;;7.30;;
70908;SDS011;58554;52.006;5.926;2023-03-01T03:13:03;14.55;;;7.60;;
70908;SDS011;58554;52.006;5.926;2023-03-01T03:15:33;12.27;;;7.17;;
70908;SDS011;58554;52.006;5.926;2023-03-01T03:18:04;17.02;;;7.93;;
70908;SDS011;58554;52.006;5.926;2023-03-01T03:20:34;16.00;;;7.77;;
70908;SDS011;58554;52.006;5.926;2023-03-01T03:23:04;13.90;;;7.70;;
70908;SDS011;58554;52.006;5.926;2023-03-01T03:25:31;15.67;;;6.97;;
70908;SDS011;58554;52.006;5.926;2023-03-01T03:27:58;13.65;;;7.35;;
70908;SDS011;58554;52.006;5.926;2023-03-01T03:30:25;12.40;;;6.73;;
70908;SDS011;58554;52.006;5.926;2023-03-01T03:32:54;15.67;;;7.80;;
70908;SDS011;58554;52.006;5.926;2023-03-01T03:35:26;15.00;;;7.55;;
70908;SDS011;58554;52.006;5.926;2023-03-01T03:37:55;16.67;;;7.83;;
70908;SDS011;58554;52.006;5.926;2023-03-01T03:40:24;15.40;;;7.50;;
70908;SDS011;58554;52.006;5.926;2023-03-01T03:42:51;14.05;;;7.20;;
70908;SDS011;58554;52.006;5.926;2023-03-01T03:45:17;17.67;;;7.27;;
70908;SDS011;58554;52.006;5.926;2023-03-01T03:47:45;15.18;;;7.78;;
70908;SDS011;58554;52.006;5.926;2023-03-01T03:50:11;14.13;;;6.87;;
70908;SDS011;58554;52.006;5.926;2023-03-01T03:52:43;15.65;;;7.53;;
70908;SDS011;58554;52.006;5.926;2023-03-01T03:55:11;13.50;;;7.40;;
70908;SDS011;58554;52.006;5.926;2023-03-01T03:57:39;17.25;;;7.88;;
70908;SDS011;58554;52.006;5.926;2023-03-01T04:00:10;15.20;;;7.40;;
70908;SDS011;58554;52.006;5.926;2023-03-01T04:02:38;14.23;;;7.68;;
70908;SDS011;58554;52.006;5.926;2023-03-01T04:05:06;13.97;;;7.47;;
70908;SDS011;58554;52.006;5.926;2023-03-01T04:07:35;13.73;;;7.55;;
70908;SDS011;58554;52.006;5.926;2023-03-01T04:10:08;14.97;;;7.33;;
70908;SDS011;58554;52.006;5.926;2023-03-01T04:12:38;16.60;;;7.85;;
70908;SDS011;58554;52.006;5.926;2023-03-01T04:15:06;13.87;;;7.43;;
70908;SDS011;58554;52.006;5.926;2023-03-01T04:17:33;14.98;;;7.80;;
70908;SDS011;58554;52.006;5.926;2023-03-01T04:20:00;15.63;;;7.27;;
70908;SDS011;58554;52.006;5.926;2023-03-01T04:22:26;14.85;;;7.13;;
70908;SDS011;58554;52.006;5.926;2023-03-01T04:24:53;12.27;;;6.67;;
70908;SDS011;58554;52.006;5.926;2023-03-01T04:27:22;11.83;;;6.97;;
70908;SDS011;58554;52.006;5.926;2023-03-01T04:29:49;17.30;;;7.13;;
70908;SDS011;58554;52.006;5.926;2023-03-01T04:32:15;15.38;;;7.75;;
70908;SDS011;58554;52.006;5.926;2023-03-01T04:34:42;15.80;;;7.53;;
70908;SDS011;58554;52.006;5.926;2023-03-01T04:37:08;16.23;;;6.90;;
70908;SDS011;58554;52.006;5.926;2023-03-01T04:39:35;16.03;;;7.63;;
70908;SDS011;58554;52.006;5.926;2023-03-01T04:42:01;13.70;;;7.07;;
70908;SDS011;58554;52.006;5.926;2023-03-01T04:44:31;13.23;;;6.50;;
70908;SDS011;58554;52.006;5.926;2023-03-01T04:46:57;14.02;;;7.38;;
70908;SDS011;58554;52.006;5.926;2023-03-01T04:49:24;12.77;;;6.67;;
70908;SDS011;58554;52.006;5.926;2023-03-01T04:51:50;13.23;;;6.97;;
70908;SDS011;58554;52.006;5.926;2023-03-01T04:54:17;16.10;;;7.23;;
70908;SDS011;58554;52.006;5.926;2023-03-01T04:56:43;14.38;;;6.88;;
70908;SDS011;58554;52.006;5.926;2023-03-01T04:59:10;16.20;;;7.90;;
70908;SDS011;58554;52.006;5.926;2023-03-01T05:01:39;12.68;;;7.07;;
70908;SDS011;58554;52.006;5.926;2023-03-01T05:04:06;17.67;;;8.53;;
70908;SDS011;58554;52.006;5.926;2023-03-01T05:06:32;15.27;;;7.57;;
70908;SDS011;58554;52.006;5.926;2023-03-01T05:09:00;13.00;;;7.10;;
70908;SDS011;58554;52.006;5.926;2023-03-01T05:11:26;14.85;;;7.45;;
70908;SDS011;58554;52.006;5.926;2023-03-01T05:13:53;13.80;;;7.37;;
70908;SDS011;58554;52.006;5.926;2023-03-01T05:16:19;15.30;;;7.78;;
70908;SDS011;58554;52.006;5.926;2023-03-01T05:18:48;13.77;;;6.80;;
70908;SDS011;58554;52.006;5.926;2023-03-01T05:21:16;14.88;;;6.97;;
70908;SDS011;58554;52.006;5.926;2023-03-01T05:23:44;13.23;;;7.13;;
70908;SDS011;58554;52.006;5.926;2023-03-01T05:26:11;13.90;;;7.40;;
70908;SDS011;58554;52.006;5.926;2023-03-01T05:28:37;15.27;;;6.67;;
70908;SDS011;58554;52.006;5.926;2023-03-01T05:31:05;15.57;;;7.50;;
70908;SDS011;58554;52.006;5.926;2023-03-01T05:33:32;13.43;;;6.70;;
70908;SDS011;58554;52.006;5.926;2023-03-01T05:36:02;13.02;;;6.97;;
70908;SDS011;58554;52.006;5.926;2023-03-01T05:38:30;12.70;;;6.40;;
70908;SDS011;58554;52.006;5.926;2023-03-01T05:40:57;12.80;;;7.03;;
70908;SDS011;58554;52.006;5.926;2023-03-01T05:43:23;14.97;;;6.77;;
70908;SDS011;58554;52.006;5.926;2023-03-01T05:45:50;14.85;;;7.43;;
70908;SDS011;58554;52.006;5.926;2023-03-01T05:48:16;14.27;;;7.30;;
70908;SDS011;58554;52.006;5.926;2023-03-01T05:50:45;15.07;;;6.82;;
70908;SDS011;58554;52.006;5.926;2023-03-01T05:53:15;15.97;;;7.17;;
70908;SDS011;58554;52.006;5.926;2023-03-01T05:55:44;11.83;;;6.73;;
70908;SDS011;58554;52.006;5.926;2023-03-01T05:58:12;12.97;;;6.73;;
70908;SDS011;58554;52.006;5.926;2023-03-01T06:00:42;14.35;;;7.03;;
70908;SDS011;58554;52.006;5.926;2023-03-01T06:03:10;14.27;;;6.73;;
70908;SDS011;58554;52.006;5.926;2023-03-01T06:05:40;14.95;;;7.68;;
70908;SDS011;58554;52.006;5.926;2023-03-01T06:08:08;17.53;;;6.73;;
70908;SDS011;58554;52.006;5.926;2023-03-01T06:10:38;13.93;;;7.53;;
70908;SDS011;58554;52.006;5.926;2023-03-01T06:13:06;12.90;;;7.23;;
70908;SDS011;58554;52.006;5.926;2023-03-01T06:15:32;15.38;;;7.78;;
70908;SDS011;58554;52.006;5.926;2023-03-01T06:17:59;16.40;;;7.80;;
70908;SDS011;58554;52.006;5.926;2023-03-01T06:20:26;16.02;;;8.30;;
70908;SDS011;58554;52.006;5.926;2023-03-01T06:22:54;16.20;;;7.27;;
70908;SDS011;58554;52.006;5.926;2023-03-01T06:25:22;15.85;;;8.02;;
70908;SDS011;58554;52.006;5.926;2023-03-01T06:27:54;15.70;;;7.63;;
70908;SDS011;58554;52.006;5.926;2023-03-01T06:30:22;14.43;;;7.00;;
70908;SDS011;58554;52.006;5.926;2023-03-01T06:32:51;14.90;;;7.32;;
70908;SDS011;58554;52.006;5.926;2023-03-01T06:35:18;12.77;;;6.93;;
70908;SDS011;58554;52.006;5.926;2023-03-01T06:37:46;14.00;;;7.45;;
70908;SDS011;58554;52.006;5.926;2023-03-01T06:40:14;13.57;;;6.63;;
70908;SDS011;58554;52.006;5.926;2023-03-01T06:42:42;13.90;;;7.25;;
70908;SDS011;58554;52.006;5.926;2023-03-01T06:45:17;15.13;;;8.03;;
70908;SDS011;58554;52.006;5.926;2023-03-01T06:47:45;15.35;;;7.05;;
70908;SDS011;58554;52.006;5.926;2023-03-01T06:50:13;13.67;;;7.77;;
70908;SDS011;58554;52.006;5.926;2023-03-01T06:52:41;14.47;;;7.10;;
70908;SDS011;58554;52.006;5.926;2023-03-01T06:55:08;15.15;;;7.85;;
70908;SDS011;58554;52.006;5.926;2023-03-01T06:57:35;13.43;;;6.97;;
70908;SDS011;58554;52.006;5.926;2023-03-01T07:00:02;14.40;;;7.20;;
70908;SDS011;58554;52.006;5.926;2023-03-01T07:02:32;13.27;;;6.97;;
70908;SDS011;58554;52.006;5.926;2023-03-01T07:04:59;11.77;;;6.30;;
70908;SDS011;58554;52.006;5.926;2023-03-01T07:07:25;13.40;;;6.93;;
70908;SDS011;58554;52.006;5.926;2023-03-01T07:09:52;11.97;;;6.23;;
70908;SDS011;58554;52.006;5.926;2023-03-01T07:12:18;16.27;;;7.60;;
70908;SDS011;58554;52.006;5.926;2023-03-01T07:14:45;14.17;;;7.40;;
70908;SDS011;58554;52.006;5.926;2023-03-01T07:17:11;15.53;;;7.20;;
70908;SDS011;58554;52.006;5.926;2023-03-01T07:19:41;15.07;;;7.13;;
70908;SDS011;58554;52.006;5.926;2023-03-01T07:22:07;12.73;;;6.67;;
70908;SDS011;58554;52.006;5.926;2023-03-01T07:24:34;14.13;;;7.40;;
70908;SDS011;58554;52.006;5.926;2023-03-01T07:27:00;12.77;;;7.20;;
70908;SDS011;58554;52.006;5.926;2023-03-01T07:29:27;14.77;;;7.63;;
70908;SDS011;58554;52.006;5.926;2023-03-01T07:31:54;11.87;;;6.90;;
70908;SDS011;58554;52.006;5.926;2023-03-01T07:34:21;12.65;;;6.88;;
70908;SDS011;58554;52.006;5.926;2023-03-01T07:36:50;15.57;;;7.67;;
70908;SDS011;58554;52.006;5.926;2023-03-01T07:39:16;11.85;;;6.45;;
70908;SDS011;58554;52.006;5.926;2023-03-01T07:41:43;12.80;;;6.67;;
70908;SDS011;58554;52.006;5.926;2023-03-01T07:44:10;11.77;;;7.13;;
70908;SDS011;58554;52.006;5.926;2023-03-01T07:46:36;12.50;;;6.60;;
70908;SDS011;58554;52.006;5.926;2023-03-01T07:49:03;10.07;;;6.13;;
70908;SDS011;58554;52.006;5.926;2023-03-01T07:51:29;12.57;;;6.93;;
70908;SDS011;58554;52.006;5.926;2023-03-01T07:53:58;11.73;;;6.43;;
70908;SDS011;58554;52.006;5.926;2023-03-01T07:56:25;11.45;;;6.50;;
70908;SDS011;58554;52.006;5.926;2023-03-01T07:58:51;10.37;;;6.33;;
70908;SDS011;58554;52.006;5.926;2023-03-01T08:01:19;10.68;;;6.32;;
70908;SDS011;58554;52.006;5.926;2023-03-01T08:03:47;11.57;;;6.73;;
70908;SDS011;58554;52.006;5.926;2023-03-01T08:06:15;12.00;;;7.20;;
70908;SDS011;58554;52.006;5.926;2023-03-01T08:08:44;12.10;;;6.97;;
70908;SDS011;58554;52.006;5.926;2023-03-01T08:11:14;10.70;;;6.60;;
70908;SDS011;58554;52.006;5.926;2023-03-01T08:13:41;10.83;;;6.80;;
70908;SDS011;58554;52.006;5.926;2023-03-01T08:16:10;10.13;;;6.35;;
70908;SDS011;58554;52.006;5.926;2023-03-01T08:18:39;11.10;;;7.00;;
70908;SDS011;58554;52.006;5.926;2023-03-01T08:21:07;11.37;;;6.53;;
70908;SDS011;58554;52.006;5.926;2023-03-01T08:23:37;11.10;;;6.50;;
70908;SDS011;58554;52.006;5.926;2023-03-01T08:26:05;12.33;;;6.63;;
70908;SDS011;58554;52.006;5.926;2023-03-01T08:28:36;11.77;;;6.70;;
70908;SDS011;58554;52.006;5.926;2023-03-01T08:31:12;11.32;;;6.45;;
70908;SDS011;58554;52.006;5.926;2023-03-01T08:33:42;9.07;;;5.63;;
70908;SDS011;58554;52.006;5.926;2023-03-01T08:36:09;8.93;;;6.20;;
70908;SDS011;58554;52.006;5.926;2023-03-01T08:38:37;10.15;;;6.50;;
70908;SDS011;58554;52.006;5.926;2023-03-01T08:41:03;9.23;;;6.10;;
70908;SDS011;58554;52.006;5.926;2023-03-01T08:43:34;9.82;;;6.00;;
70908;SDS011;58554;52.006;5.926;2023-03-01T08:46:04;9.38;;;6.13;;
70908;SDS011;58554;52.006;5.926;2023-03-01T08:48:30;10.90;;;6.27;;
70908;SDS011;58554;52.006;5.926;2023-03-01T08:50:57;9.55;;;5.95;;
70908;SDS011;58554;52.006;5.926;2023-03-01T08:53:34;9.35;;;5.55;;
70908;SDS011;58554;52.006;5.926;2023-03-01T08:56:00;9.40;;;6.17;;
70908;SDS011;58554;52.006;5.926;2023-03-01T08:58:27;8.32;;;6.05;;
70908;SDS011;58554;52.006;5.926;2023-03-01T09:00:56;10.27;;;6.00;;
70908;SDS011;58554;52.006;5.926;2023-03-01T09:03:23;9.30;;;6.10;;
70908;SDS011;58554;52.006;5.926;2023-03-01T09:05:51;8.83;;;6.10;;
70908;SDS011;58554;52.006;5.926;2023-03-01T09:08:17;7.90;;;5.90;;
70908;SDS011;58554;52.006;5.926;2023-03-01T09:10:45;8.43;;;5.72;;
70908;SDS011;58554;52.006;5.926;2023-03-01T09:13:12;7.70;;;5.57;;
70908;SDS011;58554;52.006;5.926;2023-03-01T09:15:38;8.40;;;5.37;;
70908;SDS011;58554;52.006;5.926;2023-03-01T09:18:08;11.13;;;5.93;;
70908;SDS011;58554;52.006;5.926;2023-03-01T09:20:34;8.60;;;5.97;;
70908;SDS011;58554;52.006;5.926;2023-03-01T09:23:01;8.87;;;5.67;;
70908;SDS011;58554;52.006;5.926;2023-03-01T09:25:28;7.30;;;5.35;;
70908;SDS011;58554;52.006;5.926;2023-03-01T09:27:54;7.95;;;5.65;;
70908;SDS011;58554;52.006;5.926;2023-03-01T09:30:21;7.20;;;5.30;;
70908;SDS011;58554;52.006;5.926;2023-03-01T09:32:48;7.33;;;5.30;;
70908;SDS011;58554;52.006;5.926;2023-03-01T09:35:17;8.65;;;5.95;;
70908;SDS011;58554;52.006;5.926;2023-03-01T09:37:43;8.73;;;6.03;;
70908;SDS011;58554;52.006;5.926;2023-03-01T09:40:11;8.30;;;6.07;;
70908;SDS011;58554;52.006;5.926;2023-03-01T09:42:46;9.17;;;6.73;;
70908;SDS011;58554;52.006;5.926;2023-03-01T09:45:25;8.10;;;5.85;;
70908;SDS011;58554;52.006;5.926;2023-03-01T09:47:59;11.10;;;7.15;;
70908;SDS011;58554;52.006;5.926;2023-03-01T09:50:34;9.90;;;6.83;;
70908;SDS011;58554;52.006;5.926;2023-03-01T09:53:09;11.40;;;8.65;;
70908;SDS011;58554;52.006;5.926;2023-03-01T09:55:42;13.05;;;9.60;;
70908;SDS011;58554;52.006;5.926;2023-03-01T09:58:27;10.82;;;8.40;;
70908;SDS011;58554;52.006;5.926;2023-03-01T10:01:09;12.73;;;9.57;;
70908;SDS011;58554;52.006;5.926;2023-03-01T10:03:58;13.60;;;9.43;;
70908;SDS011;58554;52.006;5.926;2023-03-01T10:06:50;11.80;;;9.10;;
70908;SDS011;58554;52.006;5.926;2023-03-01T10:09:32;14.45;;;9.18;;
70908;SDS011;58554;52.006;5.926;2023-03-01T10:12:02;11.60;;;8.32;;
70908;SDS011;58554;52.006;5.926;2023-03-01T10:14:35;11.57;;;8.33;;
70908;SDS011;58554;52.006;5.926;2023-03-01T10:17:11;12.53;;;9.33;;
70908;SDS011;58554;52.006;5.926;2023-03-01T10:19:54;11.25;;;8.50;;
70908;SDS011;58554;52.006;5.926;2023-03-01T10:22:49;10.43;;;8.27;;
70908;SDS011;58554;52.006;5.926;2023-03-01T10:25:21;10.43;;;8.00;;
70908;SDS011;58554;52.006;5.926;2023-03-01T10:28:10;11.00;;;8.10;;
70908;SDS011;58554;52.006;5.926;2023-03-01T10:30:43;10.27;;;7.60;;
70908;SDS011;58554;52.006;5.926;2023-03-01T10:33:14;10.45;;;7.47;;
70908;SDS011;58554;52.006;5.926;2023-03-01T10:35:46;9.38;;;6.95;;
70908;SDS011;58554;52.006;5.926;2023-03-01T10:38:15;9.10;;;7.00;;
70908;SDS011;58554;52.006;5.926;2023-03-01T10:40:50;9.20;;;6.77;;
70908;SDS011;58554;52.006;5.926;2023-03-01T10:43:20;9.02;;;6.57;;
70908;SDS011;58554;52.006;5.926;2023-03-01T10:45:48;9.23;;;6.55;;
70908;SDS011;58554;52.006;5.926;2023-03-01T10:48:17;8.47;;;6.70;;
70908;SDS011;58554;52.006;5.926;2023-03-01T10:50:47;8.10;;;6.40;;
70908;SDS011;58554;52.006;5.926;2023-03-01T10:53:27;8.75;;;5.82;;
70908;SDS011;58554;52.006;5.926;2023-03-01T10:56:00;9.07;;;6.30;;
70908;SDS011;58554;52.006;5.926;2023-03-01T10:58:33;7.53;;;5.93;;
70908;SDS011;58554;52.006;5.926;2023-03-01T11:01:02;8.40;;;6.40;;
70908;SDS011;58554;52.006;5.926;2023-03-01T11:03:32;8.40;;;6.40;;
70908;SDS011;58554;52.006;5.926;2023-03-01T11:06:03;8.38;;;6.50;;
70908;SDS011;58554;52.006;5.926;2023-03-01T11:08:48;8.13;;;5.80;;
70908;SDS011;58554;52.006;5.926;2023-03-01T11:11:21;8.93;;;6.00;;
70908;SDS011;58554;52.006;5.926;2023-03-01T11:13:56;7.78;;;5.75;;
70908;SDS011;58554;52.006;5.926;2023-03-01T11:16:31;8.10;;;6.20;;
70908;SDS011;58554;52.006;5.926;2023-03-01T11:19:13;8.40;;;6.17;;
70908;SDS011;58554;52.006;5.926;2023-03-01T11:21:46;7.00;;;5.73;;
70908;SDS011;58554;52.006;5.926;2023-03-01T11:24:26;7.95;;;5.97;;
70908;SDS011;58554;52.006;5.926;2023-03-01T11:27:07;7.10;;;5.90;;
70908;SDS011;58554;52.006;5.926;2023-03-01T11:29:46;7.53;;;6.20;;
70908;SDS011;58554;52.006;5.926;2023-03-01T11:32:20;7.17;;;5.90;;
70908;SDS011;58554;52.006;5.926;2023-03-01T11:34:54;7.53;;;6.20;;
70908;SDS011;58554;52.006;5.926;2023-03-01T11:37:32;7.68;;;5.93;;
70908;SDS011;58554;52.006;5.926;2023-03-01T11:40:14;7.40;;;6.20;;
70908;SDS011;58554;52.006;5.926;2023-03-01T11:43:02;10.53;;;6.80;;
70908;SDS011;58554;52.006;5.926;2023-03-01T11:45:45;10.07;;;7.10;;
70908;SDS011;58554;52.006;5.926;2023-03-01T11:48:37;9.02;;;6.57;;
70908;SDS011;58554;52.006;5.926;2023-03-01T11:51:23;8.40;;;6.63;;
70908;SDS011;58554;52.006;5.926;2023-03-01T11:54:06;8.55;;;6.40;;
70908;SDS011;58554;52.006;5.926;2023-03-01T11:56:55;9.80;;;7.07;;
70908;SDS011;58554;52.006;5.926;2023-03-01T12:02:45;8.90;;;6.40;;
70908;SDS011;58554;52.006;5.926;2023-03-01T12:05:59;9.93;;;7.00;;
70908;SDS011;58554;52.006;5.926;2023-03-01T12:08:48;10.32;;;7.43;;
70908;SDS011;58554;52.006;5.926;2023-03-01T12:11:37;9.20;;;6.90;;
70908;SDS011;58554;52.006;5.926;2023-03-01T12:14:36;9.67;;;6.80;;
70908;SDS011;58554;52.006;5.926;2023-03-01T12:17:26;8.27;;;6.47;;
70908;SDS011;58554;52.006;5.926;2023-03-01T12:20:24;9.80;;;7.00;;
70908;SDS011;58554;52.006;5.926;2023-03-01T12:23:25;9.40;;;6.50;;
70908;SDS011;58554;52.006;5.926;2023-03-01T12:26:29;8.60;;;6.77;;
70908;SDS011;58554;52.006;5.926;2023-03-01T12:29:16;9.25;;;6.50;;
70908;SDS011;58554;52.006;5.926;2023-03-01T12:32:04;9.02;;;6.72;;
70908;SDS011;58554;52.006;5.926;2023-03-01T12:35:09;9.90;;;6.87;;
70908;SDS011;58554;52.006;5.926;2023-03-01T12:38:11;9.00;;;6.40;;
70908;SDS011;58554;52.006;5.926;2023-03-01T12:41:04;8.15;;;6.35;;
70908;SDS011;58554;52.006;5.926;2023-03-01T12:44:00;8.10;;;6.47;;
70908;SDS011;58554;52.006;5.926;2023-03-01T12:46:42;7.97;;;6.57;;
70908;SDS011;58554;52.006;5.926;2023-03-01T12:49:33;8.77;;;6.75;;
70908;SDS011;58554;52.006;5.926;2023-03-01T12:52:09;8.65;;;6.60;;
70908;SDS011;58554;52.006;5.926;2023-03-01T12:54:42;10.03;;;7.13;;
70908;SDS011;58554;52.006;5.926;2023-03-01T12:57:12;8.23;;;6.50;;
70908;SDS011;58554;52.006;5.926;2023-03-01T12:59:55;9.77;;;7.10;;
70908;SDS011;58554;52.006;5.926;2023-03-01T13:02:45;9.20;;;6.93;;
70908;SDS011;58554;52.006;5.926;2023-03-01T13:05:26;8.70;;;6.47;;
70908;SDS011;58554;52.006;5.926;2023-03-01T13:08:09;7.47;;;6.30;;
70908;SDS011;58554;52.006;5.926;2023-03-01T13:10:49;9.07;;;6.70;;
70908;SDS011;58554;52.006;5.926;2023-03-01T13:13:22;8.20;;;6.43;;
70908;SDS011;58554;52.006;5.926;2023-03-01T13:15:51;8.50;;;6.90;;
70908;SDS011;58554;52.006;5.926;2023-03-01T13:18:30;9.57;;;6.77;;
70908;SDS011;58554;52.006;5.926;2023-03-01T13:21:05;9.80;;;6.13;;
70908;SDS011;58554;52.006;5.926;2023-03-01T13:23:33;8.55;;;6.80;;
70908;SDS011;58554;52.006;5.926;2023-03-01T13:26:07;8.65;;;6.65;;
70908;SDS011;58554;52.006;5.926;2023-03-01T13:34:40;8.02;;;6.45;;
70908;SDS011;58554;52.006;5.926;2023-03-01T13:37:31;8.05;;;6.20;;
70908;SDS011;58554;52.006;5.926;2023-03-01T13:40:03;8.93;;;6.80;;
70908;SDS011;58554;52.006;5.926;2023-03-01T13:43:27;7.00;;;5.83;;
70908;SDS011;58554;52.006;5.926;2023-03-01T13:45:57;7.80;;;6.10;;
70908;SDS011;58554;52.006;5.926;2023-03-01T13:48:26;7.38;;;5.97;;
70908;SDS011;58554;52.006;5.926;2023-03-01T13:50:57;9.88;;;6.65;;
70908;SDS011;58554;52.006;5.926;2023-03-01T13:53:29;7.97;;;6.60;;
70908;SDS011;58554;52.006;5.926;2023-03-01T13:56:02;8.43;;;6.37;;
70908;SDS011;58554;52.006;5.926;2023-03-01T13:58:50;9.00;;;7.20;;
70908;SDS011;58554;52.006;5.926;2023-03-01T14:01:25;8.50;;;6.35;;
70908;SDS011;58554;52.006;5.926;2023-03-01T14:03:55;9.30;;;7.00;;
70908;SDS011;58554;52.006;5.926;2023-03-01T14:06:23;9.40;;;7.50;;
70908;SDS011;58554;52.006;5.926;2023-03-01T14:09:00;9.95;;;7.18;;
70908;SDS011;58554;52.006;5.926;2023-03-01T14:14:48;8.53;;;6.40;;
70908;SDS011;58554;52.006;5.926;2023-03-01T14:17:29;8.80;;;6.87;;
70908;SDS011;58554;52.006;5.926;2023-03-01T14:22:44;9.45;;;6.40;;
70908;SDS011;58554;52.006;5.926;2023-03-01T14:25:17;10.03;;;6.93;;
70908;SDS011;58554;52.006;5.926;2023-03-01T14:27:56;9.40;;;6.70;;
70908;SDS011;58554;52.006;5.926;2023-03-01T14:30:31;9.18;;;6.50;;
70908;SDS011;58554;52.006;5.926;2023-03-01T14:33:04;9.82;;;7.05;;
70908;SDS011;58554;52.006;5.926;2023-03-01T14:35:51;10.30;;;6.67;;
70908;SDS011;58554;52.006;5.926;2023-03-01T14:38:21;9.20;;;6.78;;
70908;SDS011;58554;52.006;5.926;2023-03-01T14:40:54;10.18;;;6.57;;
70908;SDS011;58554;52.006;5.926;2023-03-01T14:43:26;9.82;;;6.40;;
70908;SDS011;58554;52.006;5.926;2023-03-01T14:45:58;8.93;;;6.27;;
70908;SDS011;58554;52.006;5.926;2023-03-01T14:48:26;9.70;;;6.38;;
70908;SDS011;58554;52.006;5.926;2023-03-01T14:50:56;10.02;;;6.20;;
70908;SDS011;58554;52.006;5.926;2023-03-01T14:53:24;8.38;;;6.45;;
70908;SDS011;58554;52.006;5.926;2023-03-01T14:55:55;9.97;;;6.50;;
70908;SDS011;58554;52.006;5.926;2023-03-01T14:58:27;9.30;;;6.47;;
70908;SDS011;58554;52.006;5.926;2023-03-01T15:01:00;9.80;;;6.60;;
70908;SDS011;58554;52.006;5.926;2023-03-01T15:03:31;8.93;;;6.28;;
70908;SDS011;58554;52.006;5.926;2023-03-01T15:06:01;8.57;;;6.00;;
70908;SDS011;58554;52.006;5.926;2023-03-01T15:08:31;8.00;;;6.03;;
70908;SDS011;58554;52.006;5.926;2023-03-01T15:11:02;8.23;;;6.40;;
70908;SDS011;58554;52.006;5.926;2023-03-01T15:13:43;7.68;;;5.90;;
70908;SDS011;58554;52.006;5.926;2023-03-01T15:16:13;8.43;;;6.00;;
70908;SDS011;58554;52.006;5.926;2023-03-01T15:18:44;8.33;;;6.00;;
70908;SDS011;58554;52.006;5.926;2023-03-01T15:21:15;8.52;;;5.97;;